Time;durP1;ratioP1;P1;durP2;ratioP2;P2;SDS_P1;SDS_P2;PMS_P1;PMS_P2;Temp;Humidity;BMP_temperature;BMP_pressure;BME280_temperature;BME280_humidity;BME280_pressure;Samples;Min_cycle;Max_cycle;Signal;HPM_P1;HPM_P2
2022/04/24 00:00:07;;;;;;;;;;;13.30;99.90;;;;;;5038519;28;19925;-73
2022/04/24 00:02:34;;;;;;;;;;;13.30;99.90;;;;;;5038160;28;19983;-72
2022/04/24 00:05:01;;;;;;;;;;;13.30;99.90;;;;;;5038867;28;19932;-73
2022/04/24 00:07:31;;;;;;;;;;;13.30;99.90;;;;;;5038617;28;19925;-73
2022/04/24 00:09:58;;;;;;;;;;;13.30;99.90;;;;;;5037898;28;19925;-72
2022/04/24 00:12:24;;;;;;;;;;;13.20;99.90;;;;;;5038158;28;19929;-73
2022/04/24 00:14:51;;;;;;;;;;;13.20;99.90;;;;;;5039065;28;20000;-73
2022/04/24 00:17:20;;;;;;;;;;;13.10;99.90;;;;;;5039529;28;19929;-73
2022/04/24 00:19:48;;;;;;;;;;;13.10;99.90;;;;;;5037684;28;19928;-72
2022/04/24 00:22:15;;;;;;;;;;;13.00;99.90;;;;;;5037940;28;19931;-72
2022/04/24 00:24:43;;;;;;;;;;;12.90;99.90;;;;;;5038330;28;19972;-72
2022/04/24 00:27:10;;;;;;;;;;;12.80;99.90;;;;;;5039103;28;19926;-72
2022/04/24 00:29:37;;;;;;;;;;;12.70;99.90;;;;;;5038063;28;19939;-72
2022/04/24 00:32:04;;;;;;;;;;;12.60;99.90;;;;;;5038232;28;19929;-72
2022/04/24 00:34:31;;;;;;;;;;;12.60;99.90;;;;;;5037158;28;19932;-72
2022/04/24 00:36:58;;;;;;;;;;;12.50;99.90;;;;;;5022854;28;19926;-73
2022/04/24 00:39:25;;;;;;;;;;;12.40;99.90;;;;;;5018619;28;19926;-73
2022/04/24 00:41:53;;;;;;;;;;;12.30;99.90;;;;;;5019107;28;19926;-73
2022/04/24 00:44:20;;;;;;;;;;;12.30;99.90;;;;;;5018454;28;19925;-73
2022/04/24 00:47:22;;;;;;;;;;;12.20;99.90;;;;;;5018759;28;19988;-73
2022/04/24 00:49:50;;;;;;;;;;;12.10;99.90;;;;;;5018248;28;19925;-73
2022/04/24 00:52:17;;;;;;;;;;;12.10;99.90;;;;;;5019145;28;19926;-73
2022/04/24 00:54:44;;;;;;;;;;;12.00;99.90;;;;;;5019576;28;19936;-73
2022/04/24 00:57:13;;;;;;;;;;;11.90;99.90;;;;;;5020219;28;19929;-72
2022/04/24 00:59:40;;;;;;;;;;;11.80;99.90;;;;;;5018907;28;19929;-72
2022/04/24 01:02:07;;;;;;;;;;;11.70;99.90;;;;;;5018122;28;19926;-73
2022/04/24 01:04:34;;;;;;;;;;;11.70;99.90;;;;;;5018583;28;19929;-73
2022/04/24 01:07:01;;;;;;;;;;;11.60;99.90;;;;;;5018611;28;19956;-72
2022/04/24 01:09:28;;;;;;;;;;;11.60;99.90;;;;;;5017650;28;20397;-73
2022/04/24 01:11:56;;;;;;;;;;;11.50;99.90;;;;;;5018755;28;19925;-73
2022/04/24 01:14:25;;;;;;;;;;;11.50;99.90;;;;;;5018537;28;19925;-73
2022/04/24 01:16:53;;;;;;;;;;;11.40;99.90;;;;;;5017782;28;20008;-73
2022/04/24 01:19:20;;;;;;;;;;;11.40;99.90;;;;;;5018264;28;19926;-73
2022/04/24 01:21:49;;;;;;;;;;;11.30;99.90;;;;;;5017961;28;19929;-73
2022/04/24 01:24:17;;;;;;;;;;;11.20;99.90;;;;;;5017863;28;19926;-73
2022/04/24 01:26:44;;;;;;;;;;;11.20;99.90;;;;;;5018260;28;19932;-73
2022/04/24 01:29:11;;;;;;;;;;;11.20;99.90;;;;;;5018262;28;19925;-72
2022/04/24 01:31:45;;;;;;;;;;;11.10;99.90;;;;;;5017478;28;19926;-73
2022/04/24 01:34:12;;;;;;;;;;;11.10;99.90;;;;;;5017420;28;19937;-73
2022/04/24 01:36:39;;;;;;;;;;;11.00;99.90;;;;;;5019528;28;19925;-73
2022/04/24 01:39:08;;;;;;;;;;;11.00;99.90;;;;;;5017798;28;19961;-72
2022/04/24 01:41:35;;;;;;;;;;;10.90;99.90;;;;;;5018512;28;19936;-73
2022/04/24 01:44:02;;;;;;;;;;;10.90;99.90;;;;;;5018340;28;19940;-72
2022/04/24 01:46:29;;;;;;;;;;;10.90;99.90;;;;;;5018034;28;19932;-72
2022/04/24 01:48:55;;;;;;;;;;;10.90;99.90;;;;;;5017524;28;20405;-72
2022/04/24 01:51:22;;;;;;;;;;;10.90;99.90;;;;;;5017646;28;19933;-72
2022/04/24 01:53:49;;;;;;;;;;;10.90;99.90;;;;;;5018231;28;20393;-73
2022/04/24 01:56:17;;;;;;;;;;;10.80;99.90;;;;;;5019319;28;19948;-73
2022/04/24 01:58:44;;;;;;;;;;;10.80;99.90;;;;;;5017542;28;19936;-72
2022/04/24 02:01:11;;;;;;;;;;;10.70;99.90;;;;;;5017955;28;19933;-72
2022/04/24 02:03:38;;;;;;;;;;;10.70;99.90;;;;;;5018527;28;19925;-72
2022/04/24 02:06:06;;;;;;;;;;;10.70;99.90;;;;;;5017962;28;19925;-72
2022/04/24 02:08:35;;;;;;;;;;;10.70;99.90;;;;;;5018205;28;19960;-73
2022/04/24 02:11:01;;;;;;;;;;;10.70;99.90;;;;;;5016904;28;19925;-73
2022/04/24 02:13:30;;;;;;;;;;;10.70;99.90;;;;;;5016832;28;19926;-72
2022/04/24 02:15:56;;;;;;;;;;;10.70;99.90;;;;;;5017785;28;19925;-72
2022/04/24 02:18:23;;;;;;;;;;;10.70;99.90;;;;;;5017681;28;19926;-73
2022/04/24 02:20:50;;;;;;;;;;;10.70;99.90;;;;;;5017205;28;19929;-73
2022/04/24 02:23:17;;;;;;;;;;;10.60;99.90;;;;;;5025458;28;19925;-72
2022/04/24 02:25:44;;;;;;;;;;;10.60;99.90;;;;;;5028570;28;19971;-73
2022/04/24 02:28:10;;;;;;;;;;;10.50;99.90;;;;;;5016930;28;19933;-72
2022/04/24 02:30:39;;;;;;;;;;;10.50;99.90;;;;;;5016689;28;19941;-73
2022/04/24 02:33:06;;;;;;;;;;;10.50;99.90;;;;;;5016938;28;19940;-73
2022/04/24 02:35:33;;;;;;;;;;;10.40;99.90;;;;;;5017236;28;20405;-73
2022/04/24 02:37:59;;;;;;;;;;;10.40;99.90;;;;;;5017021;28;20024;-73
2022/04/24 02:40:27;;;;;;;;;;;10.40;99.90;;;;;;5016830;28;19925;-73
2022/04/24 02:42:54;;;;;;;;;;;10.40;99.90;;;;;;5018275;28;20393;-73
2022/04/24 02:45:21;;;;;;;;;;;10.40;99.90;;;;;;5020928;28;19925;-73
2022/04/24 02:47:50;;;;;;;;;;;10.40;99.90;;;;;;5020761;28;19930;-73
2022/04/24 02:50:17;;;;;;;;;;;10.40;99.90;;;;;;5020699;28;19926;-73
2022/04/24 02:52:47;;;;;;;;;;;10.40;99.90;;;;;;5020291;28;19933;-73
2022/04/24 02:55:15;;;;;;;;;;;10.50;99.90;;;;;;5020622;28;19932;-73
2022/04/24 02:57:42;;;;;;;;;;;10.50;99.90;;;;;;5020861;28;19949;-73
2022/04/24 03:00:10;;;;;;;;;;;10.40;99.90;;;;;;5020384;28;19925;-73
2022/04/24 03:02:41;;;;;;;;;;;10.50;99.90;;;;;;5020095;28;19930;-73
2022/04/24 03:05:10;;;;;;;;;;;10.50;99.90;;;;;;5020148;28;19961;-73
2022/04/24 03:07:36;;;;;;;;;;;10.40;99.90;;;;;;5020771;28;19925;-72
2022/04/24 03:10:03;;;;;;;;;;;10.40;99.90;;;;;;5020751;28;19933;-72
2022/04/24 03:12:30;;;;;;;;;;;10.30;99.90;;;;;;5020069;28;19936;-73
2022/04/24 03:14:57;;;;;;;;;;;10.30;99.90;;;;;;5019317;28;19926;-73
2022/04/24 03:17:24;;;;;;;;;;;10.20;99.90;;;;;;5020165;28;19948;-73
2022/04/24 03:19:51;;;;;;;;;;;10.20;99.90;;;;;;5020505;28;19930;-73
2022/04/24 03:22:19;;;;;;;;;;;10.10;99.90;;;;;;5020223;28;19925;-73
2022/04/24 03:24:46;;;;;;;;;;;10.00;99.90;;;;;;5020622;28;19929;-73
2022/04/24 03:27:13;;;;;;;;;;;10.00;99.90;;;;;;5020114;28;19926;-73
2022/04/24 03:29:40;;;;;;;;;;;9.90;99.90;;;;;;5020384;28;19968;-73
2022/04/24 03:32:07;;;;;;;;;;;9.80;99.90;;;;;;5044359;23;19929;-73
2022/04/24 03:34:35;;;;;;;;;;;9.80;99.90;;;;;;5051404;28;19960;-72
2022/04/24 03:37:02;;;;;;;;;;;9.70;99.90;;;;;;5052635;28;19925;-72
2022/04/24 03:39:30;;;;;;;;;;;9.70;99.90;;;;;;5052378;28;19962;-73
2022/04/24 03:41:57;;;;;;;;;;;9.70;99.90;;;;;;5052468;28;19931;-73
2022/04/24 03:44:24;;;;;;;;;;;9.60;99.90;;;;;;5032683;28;19929;-73
2022/04/24 03:46:51;;;;;;;;;;;9.50;99.90;;;;;;5032716;28;20355;-72
2022/04/24 03:49:17;;;;;;;;;;;9.50;99.90;;;;;;5032237;28;19925;-73
2022/04/24 03:51:44;;;;;;;;;;;9.50;99.90;;;;;;5032616;28;20012;-72
2022/04/24 03:54:11;;;;;;;;;;;9.40;99.90;;;;;;5031177;28;19929;-73
2022/04/24 03:56:40;;;;;;;;;;;9.40;99.90;;;;;;5032356;28;20012;-73
2022/04/24 03:59:06;;;;;;;;;;;9.40;99.90;;;;;;5031968;28;20381;-72
2022/04/24 04:01:33;;;;;;;;;;;9.40;99.90;;;;;;5031886;28;20304;-71
2022/04/24 04:04:00;;;;;;;;;;;9.30;99.90;;;;;;5031612;28;19925;-72
2022/04/24 04:06:27;;;;;;;;;;;9.30;99.90;;;;;;5032140;28;19925;-73
2022/04/24 04:08:54;;;;;;;;;;;9.30;99.90;;;;;;5032036;28;20300;-72
2022/04/24 04:11:20;;;;;;;;;;;9.20;99.90;;;;;;5031862;28;19932;-73
2022/04/24 04:13:49;;;;;;;;;;;9.20;99.90;;;;;;5031635;28;19932;-72
2022/04/24 04:16:15;;;;;;;;;;;9.20;99.90;;;;;;5031873;28;19929;-73
2022/04/24 04:18:42;;;;;;;;;;;9.20;99.90;;;;;;5031686;28;19936;-72
2022/04/24 04:21:09;;;;;;;;;;;9.10;99.90;;;;;;5031506;28;19925;-73
2022/04/24 04:23:36;;;;;;;;;;;9.10;99.90;;;;;;5031617;28;19932;-73
2022/04/24 04:26:03;;;;;;;;;;;9.10;99.90;;;;;;5031994;28;19935;-73
2022/04/24 04:28:30;;;;;;;;;;;9.00;99.90;;;;;;5031137;28;19932;-73
2022/04/24 04:30:58;;;;;;;;;;;9.00;99.90;;;;;;5031891;28;19925;-73
2022/04/24 04:33:25;;;;;;;;;;;9.00;99.90;;;;;;5031121;28;20372;-70
2022/04/24 04:35:52;;;;;;;;;;;9.00;99.90;;;;;;5031667;28;19925;-73
2022/04/24 04:38:18;;;;;;;;;;;9.00;99.90;;;;;;5031501;28;19925;-73
2022/04/24 04:40:45;;;;;;;;;;;9.00;99.90;;;;;;5031308;28;19932;-73
2022/04/24 04:43:12;;;;;;;;;;;9.00;99.90;;;;;;5030497;28;19936;-73
2022/04/24 04:45:39;;;;;;;;;;;9.00;99.90;;;;;;5031019;28;19932;-72
2022/04/24 04:48:07;;;;;;;;;;;9.00;99.90;;;;;;5031516;28;19925;-73
2022/04/24 04:50:34;;;;;;;;;;;9.10;99.90;;;;;;5030852;28;19931;-73
2022/04/24 04:53:01;;;;;;;;;;;9.10;99.90;;;;;;5031080;28;19929;-72
2022/04/24 04:55:28;;;;;;;;;;;9.10;99.90;;;;;;5031103;28;19925;-73
2022/04/24 04:57:56;;;;;;;;;;;9.20;99.90;;;;;;5031049;28;19925;-72
2022/04/24 05:00:23;;;;;;;;;;;9.20;99.90;;;;;;5030632;28;19933;-71
2022/04/24 05:02:50;;;;;;;;;;;9.10;99.90;;;;;;5028141;28;19925;-73
2022/04/24 05:05:18;;;;;;;;;;;9.10;99.90;;;;;;5048379;28;19925;-70
2022/04/24 05:07:45;;;;;;;;;;;9.10;99.90;;;;;;5030720;28;19925;-71
2022/04/24 05:10:12;;;;;;;;;;;9.10;99.90;;;;;;5030771;28;19925;-72
2022/04/24 05:12:38;;;;;;;;;;;9.10;99.90;;;;;;5030641;28;19925;-72
2022/04/24 05:15:06;;;;;;;;;;;9.10;99.90;;;;;;5064029;28;19925;-72
2022/04/24 05:17:34;;;;;;;;;;;9.10;99.90;;;;;;5064089;28;19940;-72
2022/04/24 05:20:01;;;;;;;;;;;9.10;99.90;;;;;;5057753;28;19929;-72
2022/04/24 05:22:29;;;;;;;;;;;9.10;99.90;;;;;;5030731;28;19948;-72
2022/04/24 05:24:56;;;;;;;;;;;9.10;99.90;;;;;;5030644;28;20347;-72
2022/04/24 05:27:23;;;;;;;;;;;9.20;99.90;;;;;;5030880;28;20049;-72
2022/04/24 05:29:50;;;;;;;;;;;9.20;99.90;;;;;;5030751;28;19925;-73
2022/04/24 05:32:17;;;;;;;;;;;9.20;99.90;;;;;;5030387;28;19926;-72
2022/04/24 05:34:43;;;;;;;;;;;9.20;99.90;;;;;;5030201;28;19936;-71
2022/04/24 05:37:11;;;;;;;;;;;9.20;99.90;;;;;;5030479;28;19932;-72
2022/04/24 05:39:39;;;;;;;;;;;9.20;99.90;;;;;;5030548;28;19925;-72
2022/04/24 05:42:06;;;;;;;;;;;9.20;99.90;;;;;;5030607;28;19925;-72
2022/04/24 05:44:33;;;;;;;;;;;9.20;99.90;;;;;;5030497;28;19933;-74
2022/04/24 05:47:00;;;;;;;;;;;9.30;99.90;;;;;;5031521;28;19925;-72
2022/04/24 05:49:27;;;;;;;;;;;9.30;99.90;;;;;;5030453;28;19953;-72
2022/04/24 05:51:54;;;;;;;;;;;9.40;99.90;;;;;;5030508;28;19925;-74
2022/04/24 05:54:21;;;;;;;;;;;9.40;99.90;;;;;;5030671;28;19925;-72
2022/04/24 05:56:49;;;;;;;;;;;9.50;99.90;;;;;;5030632;28;19925;-73
2022/04/24 05:59:16;;;;;;;;;;;9.60;99.90;;;;;;5030539;28;19925;-74
2022/04/24 06:01:43;;;;;;;;;;;9.60;99.90;;;;;;5030852;28;19929;-72
2022/04/24 06:04:10;;;;;;;;;;;9.70;99.90;;;;;;5030040;28;19925;-72
2022/04/24 06:06:36;;;;;;;;;;;9.80;99.90;;;;;;5029959;28;20293;-72
2022/04/24 06:09:03;;;;;;;;;;;9.90;99.90;;;;;;5028926;28;20052;-73
2022/04/24 06:11:30;;;;;;;;;;;10.00;99.90;;;;;;5033689;28;20419;-72
2022/04/24 06:13:59;;;;;;;;;;;10.00;99.90;;;;;;5029856;28;19925;-72
2022/04/24 06:16:26;;;;;;;;;;;10.10;99.90;;;;;;5030121;28;20348;-72
2022/04/24 06:18:53;;;;;;;;;;;10.20;99.90;;;;;;5033617;28;19925;-72
2022/04/24 06:21:20;;;;;;;;;;;10.20;99.90;;;;;;5034066;28;20292;-71
2022/04/24 06:23:47;;;;;;;;;;;10.20;99.90;;;;;;5033805;28;19925;-71
2022/04/24 06:26:14;;;;;;;;;;;10.20;99.90;;;;;;5033922;28;19936;-71
2022/04/24 06:28:40;;;;;;;;;;;10.30;99.90;;;;;;5033873;28;19932;-73
2022/04/24 06:31:09;;;;;;;;;;;10.50;99.90;;;;;;5033987;28;19925;-72
2022/04/24 06:33:35;;;;;;;;;;;10.60;99.90;;;;;;5033336;28;19926;-72
2022/04/24 06:36:02;;;;;;;;;;;10.70;99.90;;;;;;5025113;28;20335;-72
2022/04/24 06:38:29;;;;;;;;;;;10.90;99.90;;;;;;5041998;28;19925;-71
2022/04/24 06:40:56;;;;;;;;;;;11.00;99.90;;;;;;5033075;28;20460;-73
2022/04/24 06:43:23;;;;;;;;;;;11.20;99.90;;;;;;5033573;28;20003;-72
2022/04/24 06:45:50;;;;;;;;;;;11.30;99.90;;;;;;5033708;28;19929;-73
2022/04/24 06:48:18;;;;;;;;;;;11.40;99.90;;;;;;5032986;28;19932;-74
2022/04/24 06:50:46;;;;;;;;;;;11.50;99.90;;;;;;5033225;28;19925;-74
2022/04/24 06:53:14;;;;;;;;;;;11.60;99.90;;;;;;5035381;28;20420;-73
2022/04/24 06:55:41;;;;;;;;;;;11.70;99.90;;;;;;5028117;28;19949;-72
2022/04/24 06:58:09;;;;;;;;;;;11.80;99.90;;;;;;5031893;28;19925;-72
2022/04/24 07:00:37;;;;;;;;;;;11.90;99.90;;;;;;5033135;28;20315;-74
2022/04/24 07:03:09;;;;;;;;;;;11.90;99.90;;;;;;5033370;28;19929;-73
2022/04/24 07:05:37;;;;;;;;;;;11.90;99.90;;;;;;5031591;28;19939;-77
2022/04/24 07:08:05;;;;;;;;;;;12.00;99.90;;;;;;5031309;28;19925;-75
2022/04/24 07:10:32;;;;;;;;;;;12.00;99.90;;;;;;5032271;28;19925;-73
2022/04/24 07:12:59;;;;;;;;;;;12.00;99.90;;;;;;5028459;28;19925;-72
2022/04/24 07:15:25;;;;;;;;;;;12.10;99.90;;;;;;5032051;28;19925;-74
2022/04/24 07:17:52;;;;;;;;;;;12.10;99.90;;;;;;5031311;28;19925;-73
2022/04/24 07:20:20;;;;;;;;;;;12.20;99.90;;;;;;5024650;28;19925;-72
2022/04/24 07:22:49;;;;;;;;;;;12.30;99.90;;;;;;5032594;28;19925;-77
2022/04/24 07:25:17;;;;;;;;;;;12.50;99.90;;;;;;5033257;28;19925;-74
2022/04/24 07:27:44;;;;;;;;;;;12.70;99.90;;;;;;5034056;28;20335;-73
2022/04/24 07:30:14;;;;;;;;;;;12.80;99.90;;;;;;5048964;28;20020;-75
2022/04/24 07:32:42;;;;;;;;;;;13.00;99.90;;;;;;5031776;28;19929;-73
2022/04/24 07:35:10;;;;;;;;;;;13.20;99.90;;;;;;5048615;28;20316;-73
2022/04/24 07:37:37;;;;;;;;;;;13.30;99.90;;;;;;5048695;28;19976;-75
2022/04/24 07:40:06;;;;;;;;;;;13.30;99.90;;;;;;5049094;28;19937;-75
2022/04/24 07:42:43;;;;;;;;;;;13.40;99.90;;;;;;5050337;28;19925;-77
2022/04/24 07:45:10;;;;;;;;;;;13.40;99.90;;;;;;5049523;28;19925;-73
2022/04/24 07:47:37;;;;;;;;;;;13.30;99.90;;;;;;5045755;28;19972;-75
2022/04/24 07:50:06;;;;;;;;;;;13.30;99.90;;;;;;5031962;28;19929;-73
2022/04/24 07:52:33;;;;;;;;;;;13.40;99.90;;;;;;5048858;28;19956;-74
2022/04/24 07:55:00;;;;;;;;;;;13.50;99.90;;;;;;5037718;28;20385;-80
2022/04/24 07:57:28;;;;;;;;;;;13.80;99.90;;;;;;5045135;28;20032;-77
2022/04/24 07:59:55;;;;;;;;;;;13.80;99.90;;;;;;5032315;28;19925;-73
2022/04/24 08:02:22;;;;;;;;;;;13.80;99.90;;;;;;5049421;28;20393;-72
2022/04/24 08:04:49;;;;;;;;;;;13.80;99.90;;;;;;5022982;28;19926;-72
2022/04/24 08:07:17;;;;;;;;;;;13.90;99.90;;;;;;5030820;28;19925;-73
2022/04/24 08:09:44;;;;;;;;;;;14.00;99.90;;;;;;5032015;28;19929;-73
2022/04/24 08:12:11;;;;;;;;;;;14.10;99.90;;;;;;5034802;28;19926;-72
2022/04/24 08:14:39;;;;;;;;;;;13.90;99.90;;;;;;5032491;28;19939;-73
2022/04/24 08:17:06;;;;;;;;;;;13.80;99.90;;;;;;5032653;28;20304;-73
2022/04/24 08:19:33;;;;;;;;;;;13.90;99.90;;;;;;5032109;28;19925;-73
2022/04/24 08:22:00;;;;;;;;;;;14.00;99.90;;;;;;5032599;28;19925;-72
2022/04/24 08:24:26;;;;;;;;;;;14.10;99.90;;;;;;5032248;28;19932;-73
2022/04/24 08:26:53;;;;;;;;;;;14.10;99.90;;;;;;5032156;28;19925;-73
2022/04/24 08:29:20;;;;;;;;;;;14.20;99.90;;;;;;5032352;28;19929;-73
2022/04/24 08:31:51;;;;;;;;;;;14.20;99.90;;;;;;5032594;28;19936;-73
2022/04/24 08:34:18;;;;;;;;;;;14.40;99.90;;;;;;5031907;28;20391;-72
2022/04/24 08:36:45;;;;;;;;;;;14.50;99.90;;;;;;5032733;28;20403;-73
2022/04/24 08:39:12;;;;;;;;;;;14.70;99.90;;;;;;5032265;28;19931;-73
2022/04/24 08:41:41;;;;;;;;;;;14.80;99.90;;;;;;5032158;28;19925;-73
2022/04/24 08:44:08;;;;;;;;;;;15.00;99.90;;;;;;5032116;28;19960;-74
2022/04/24 08:46:35;;;;;;;;;;;15.00;99.90;;;;;;5032192;28;19929;-73
2022/04/24 08:49:04;;;;;;;;;;;15.10;99.90;;;;;;5031624;28;20359;-73
2022/04/24 08:51:31;;;;;;;;;;;15.10;99.90;;;;;;5032057;28;19925;-73
2022/04/24 08:53:58;;;;;;;;;;;15.10;99.90;;;;;;5031582;28;20320;-74
2022/04/24 08:56:25;;;;;;;;;;;15.00;99.90;;;;;;5031991;28;19935;-73
2022/04/24 08:58:52;;;;;;;;;;;15.00;99.90;;;;;;5031669;28;20024;-72
2022/04/24 09:01:19;;;;;;;;;;;15.10;99.90;;;;;;5031820;28;19925;-72
2022/04/24 09:03:46;;;;;;;;;;;15.10;99.90;;;;;;5031761;28;19925;-73
2022/04/24 09:06:25;;;;;;;;;;;15.10;99.90;;;;;;5031554;28;19929;-73
2022/04/24 09:08:51;;;;;;;;;;;15.20;99.90;;;;;;5031633;28;19991;-72
2022/04/24 09:11:22;;;;;;;;;;;15.50;99.90;;;;;;5031896;28;20469;-71
2022/04/24 09:16:34;;;;;;;;;;;15.80;99.90;;;;;;5031670;28;19927;-73
2022/04/24 09:19:01;;;;;;;;;;;15.90;99.90;;;;;;5031114;28;19929;-73
2022/04/24 09:21:30;;;;;;;;;;;16.00;99.90;;;;;;5031357;28;19925;-72
2022/04/24 09:23:59;;;;;;;;;;;16.20;99.90;;;;;;5031133;28;19929;-72
2022/04/24 09:26:25;;;;;;;;;;;16.20;99.90;;;;;;5031438;28;20414;-73
2022/04/24 09:28:53;;;;;;;;;;;16.30;99.90;;;;;;5031329;28;19925;-73
2022/04/24 09:31:19;;;;;;;;;;;16.40;99.90;;;;;;5032023;28;19925;-74
2022/04/24 09:33:46;;;;;;;;;;;16.60;99.90;;;;;;5031251;28;19929;-74
2022/04/24 09:36:14;;;;;;;;;;;16.80;99.90;;;;;;5031228;28;19929;-74
2022/04/24 09:38:43;;;;;;;;;;;17.00;99.90;;;;;;5031452;28;19933;-74
2022/04/24 09:41:17;;;;;;;;;;;17.20;99.90;;;;;;5030945;28;20364;-71
2022/04/24 09:43:44;;;;;;;;;;;17.30;99.90;;;;;;5030765;28;19929;-73
2022/04/24 09:46:11;;;;;;;;;;;17.30;99.90;;;;;;5031167;28;20324;-73
2022/04/24 09:48:38;;;;;;;;;;;17.40;99.90;;;;;;5031474;28;20420;-72
2022/04/24 09:51:05;;;;;;;;;;;17.60;99.90;;;;;;5031371;28;19925;-73
2022/04/24 09:53:32;;;;;;;;;;;17.60;99.90;;;;;;5033759;28;19925;-72
2022/04/24 09:56:02;;;;;;;;;;;17.70;99.90;;;;;;5035282;28;19932;-73
2022/04/24 09:58:29;;;;;;;;;;;17.60;99.90;;;;;;5035082;28;19925;-72
2022/04/24 10:00:57;;;;;;;;;;;17.80;99.90;;;;;;5035369;28;19929;-73
2022/04/24 10:03:24;;;;;;;;;;;17.90;99.90;;;;;;5034652;28;20296;-70
2022/04/24 10:05:50;;;;;;;;;;;18.00;99.90;;;;;;5035247;28;19931;-73
2022/04/24 10:08:18;;;;;;;;;;;18.00;99.90;;;;;;5035120;28;19929;-73
2022/04/24 10:10:45;;;;;;;;;;;18.00;99.90;;;;;;5035023;28;20285;-73
2022/04/24 10:13:15;;;;;;;;;;;18.00;99.90;;;;;;5034966;28;19940;-74
2022/04/24 10:15:46;;;;;;;;;;;17.90;99.90;;;;;;5035290;28;19925;-73
2022/04/24 10:18:29;;;;;;;;;;;17.90;99.90;;;;;;5035024;28;19926;-73
2022/04/24 10:21:17;;;;;;;;;;;17.90;99.90;;;;;;5034993;28;19929;-74
2022/04/24 10:23:45;;;;;;;;;;;17.90;99.90;;;;;;5001726;28;19932;-73
2022/04/24 10:26:19;;;;;;;;;;;17.90;99.90;;;;;;5034889;28;19932;-74
2022/04/24 10:28:48;;;;;;;;;;;17.80;99.90;;;;;;5033812;28;19976;-74
2022/04/24 10:31:16;;;;;;;;;;;17.90;99.90;;;;;;5034446;28;19932;-76
2022/04/24 10:33:51;;;;;;;;;;;18.00;99.90;;;;;;5033067;28;20020;-74
2022/04/24 10:36:18;;;;;;;;;;;18.00;99.90;;;;;;5034160;28;20365;-74
2022/04/24 10:38:49;;;;;;;;;;;18.00;99.90;;;;;;5032246;28;20455;-71
2022/04/24 10:41:17;;;;;;;;;;;18.10;99.90;;;;;;5033849;28;20392;-74
2022/04/24 10:47:12;;;;;;;;;;;18.50;99.90;;;;;;5020693;28;20438;-74
2022/04/24 10:49:40;;;;;;;;;;;18.50;99.90;;;;;;5034010;28;19925;-73
2022/04/24 10:52:07;;;;;;;;;;;18.50;99.90;;;;;;5033640;28;19965;-73
2022/04/24 10:54:34;;;;;;;;;;;18.70;99.90;;;;;;5033325;28;19925;-74
2022/04/24 10:57:02;;;;;;;;;;;18.80;99.90;;;;;;5033619;28;19933;-74
2022/04/24 10:59:42;;;;;;;;;;;18.70;99.90;;;;;;5033519;28;19925;-75
2022/04/24 11:02:10;;;;;;;;;;;18.90;99.90;;;;;;5033496;28;19929;-74
2022/04/24 11:04:41;;;;;;;;;;;18.90;99.90;;;;;;5033372;28;19929;-74
2022/04/24 11:07:08;;;;;;;;;;;19.10;99.90;;;;;;5033838;28;19925;-75
2022/04/24 11:09:35;;;;;;;;;;;19.10;99.90;;;;;;5029440;28;20397;-74
2022/04/24 11:12:07;;;;;;;;;;;19.30;99.90;;;;;;5033596;28;19925;-74
2022/04/24 11:14:35;;;;;;;;;;;19.40;99.90;;;;;;5027910;28;19928;-75
2022/04/24 11:17:03;;;;;;;;;;;19.60;99.90;;;;;;5032395;28;19948;-74
2022/04/24 11:19:31;;;;;;;;;;;19.70;99.90;;;;;;5031875;28;19926;-74
2022/04/24 11:22:00;;;;;;;;;;;19.80;99.90;;;;;;5032075;28;19929;-75
2022/04/24 11:24:27;;;;;;;;;;;20.00;99.90;;;;;;5032397;28;19925;-74
2022/04/24 11:26:55;;;;;;;;;;;20.10;99.90;;;;;;5033278;28;19925;-74
2022/04/24 11:29:22;;;;;;;;;;;20.10;99.90;;;;;;5031943;28;20028;-75
2022/04/24 11:31:50;;;;;;;;;;;20.20;99.90;;;;;;5031922;28;20292;-74
2022/04/24 11:34:17;;;;;;;;;;;20.30;99.90;;;;;;5032469;28;20020;-75
2022/04/24 11:36:45;;;;;;;;;;;20.30;99.90;;;;;;5032481;28;20284;-74
2022/04/24 11:39:13;;;;;;;;;;;20.50;99.90;;;;;;5031943;28;20305;-74
2022/04/24 11:41:43;;;;;;;;;;;20.70;99.90;;;;;;5032352;28;19933;-74
2022/04/24 11:52:20;;;;;;;;;;;25.40;99.90;;;;;;5032387;28;19921;-73
2022/04/24 11:54:51;;;;;;;;;;;26.10;99.90;;;;;;5030744;28;19932;-76
2022/04/24 11:57:18;;;;;;;;;;;26.80;99.90;;;;;;5025979;28;19936;-75
2022/04/24 11:59:51;;;;;;;;;;;26.40;99.90;;;;;;5025096;28;19929;-74
2022/04/24 12:02:18;;;;;;;;;;;26.90;99.90;;;;;;5031883;28;20273;-73
2022/04/24 12:04:50;;;;;;;;;;;26.90;99.90;;;;;;5031738;28;19925;-74
2022/04/24 12:07:17;;;;;;;;;;;27.00;99.90;;;;;;5029694;28;19925;-74
2022/04/24 12:09:44;;;;;;;;;;;26.40;99.90;;;;;;5029637;28;19925;-74
2022/04/24 12:12:13;;;;;;;;;;;25.00;99.90;;;;;;5028217;28;19929;-74
2022/04/24 12:14:41;;;;;;;;;;;23.90;99.90;;;;;;5029299;28;20281;-74
2022/04/24 12:17:09;;;;;;;;;;;24.10;99.90;;;;;;5025128;28;19926;-74
2022/04/24 12:19:36;;;;;;;;;;;24.60;99.90;;;;;;5027496;28;19975;-75
2022/04/24 12:22:07;;;;;;;;;;;24.60;99.90;;;;;;5030208;28;19925;-75
2022/04/24 12:24:44;;;;;;;;;;;25.70;99.90;;;;;;5025057;28;20396;-75
2022/04/24 12:27:14;;;;;;;;;;;26.90;99.90;;;;;;5027326;28;19926;-76
2022/04/24 12:29:41;;;;;;;;;;;27.00;99.90;;;;;;5030685;28;20311;-75
2022/04/24 12:32:12;;;;;;;;;;;27.30;99.90;;;;;;5031461;28;19965;-72
2022/04/24 12:34:39;;;;;;;;;;;26.60;99.90;;;;;;5030854;28;19936;-74
2022/04/24 12:37:06;;;;;;;;;;;26.50;99.90;;;;;;5030041;28;19929;-74
2022/04/24 12:39:33;;;;;;;;;;;25.90;99.90;;;;;;5030597;28;19925;-74
2022/04/24 12:42:10;;;;;;;;;;;25.80;99.90;;;;;;5031606;28;19926;-74
2022/04/24 12:44:39;;;;;;;;;;;26.20;99.90;;;;;;5027361;28;20020;-75
2022/04/24 12:47:06;;;;;;;;;;;26.70;99.90;;;;;;5030038;28;19925;-77
2022/04/24 12:49:32;;;;;;;;;;;26.10;99.90;;;;;;5031918;28;19940;-77
2022/04/24 12:52:00;;;;;;;;;;;25.20;99.90;;;;;;5031603;28;20411;-74
2022/04/24 12:54:27;;;;;;;;;;;25.40;99.90;;;;;;5031372;28;19932;-75
2022/04/24 12:56:54;;;;;;;;;;;26.10;99.90;;;;;;5031473;28;20282;-75
2022/04/24 12:59:21;;;;;;;;;;;26.50;99.90;;;;;;5031449;28;19925;-75
2022/04/24 13:01:53;;;;;;;;;;;26.60;99.90;;;;;;5029630;28;20405;-75
2022/04/24 13:04:20;;;;;;;;;;;26.80;99.90;;;;;;5025340;28;19926;-75
2022/04/24 13:06:48;;;;;;;;;;;26.90;99.90;;;;;;5030228;28;19925;-75
2022/04/24 13:09:15;;;;;;;;;;;27.40;99.90;;;;;;5030057;28;19932;-74
2022/04/24 13:11:42;;;;;;;;;;;27.80;99.90;;;;;;5026565;28;19925;-75
2022/04/24 13:14:09;;;;;;;;;;;27.70;99.90;;;;;;5039534;28;20369;-77
2022/04/24 13:19:24;;;;;;;;;;;27.80;99.90;;;;;;5030766;28;19921;-75
2022/04/24 13:21:52;;;;;;;;;;;28.20;99.90;;;;;;5021324;28;19936;-75
2022/04/24 13:24:18;;;;;;;;;;;28.10;99.60;;;;;;5036962;28;19929;-75
2022/04/24 13:26:45;;;;;;;;;;;27.90;99.90;;;;;;5030819;28;20016;-71
2022/04/24 13:29:12;;;;;;;;;;;27.90;99.70;;;;;;5043200;28;19932;-75
2022/04/24 13:31:39;;;;;;;;;;;28.10;99.20;;;;;;5047077;28;19925;-75
2022/04/24 13:34:06;;;;;;;;;;;28.10;99.30;;;;;;5046677;28;19932;-75
2022/04/24 13:36:34;;;;;;;;;;;27.90;99.50;;;;;;5030510;28;19929;-75
2022/04/24 13:39:00;;;;;;;;;;;28.00;99.30;;;;;;5030412;28;19925;-75
2022/04/24 13:41:27;;;;;;;;;;;27.90;98.70;;;;;;5030807;28;19921;-75
2022/04/24 13:43:54;;;;;;;;;;;28.10;99.70;;;;;;5046677;28;19932;-76
2022/04/24 13:46:21;;;;;;;;;;;28.10;98.60;;;;;;5046997;28;19925;-75
2022/04/24 13:48:47;;;;;;;;;;;28.30;98.20;;;;;;5040828;28;19925;-75
2022/04/24 13:51:15;;;;;;;;;;;28.50;98.30;;;;;;5030246;28;19929;-75
2022/04/24 13:53:45;;;;;;;;;;;28.70;98.40;;;;;;5046867;28;19945;-77
2022/04/24 13:56:13;;;;;;;;;;;28.80;97.70;;;;;;5046830;28;19929;-72
2022/04/24 13:58:40;;;;;;;;;;;28.40;97.60;;;;;;5046762;28;19964;-76
2022/04/24 14:01:07;;;;;;;;;;;28.40;97.80;;;;;;5030356;28;19984;-75
2022/04/24 14:03:34;;;;;;;;;;;28.80;97.20;;;;;;5046524;28;19956;-73
2022/04/24 14:06:01;;;;;;;;;;;28.80;97.60;;;;;;5030356;28;20467;-76
2022/04/24 14:08:29;;;;;;;;;;;28.80;97.40;;;;;;5046653;28;19996;-74
2022/04/24 14:11:00;;;;;;;;;;;28.20;96.70;;;;;;5046902;28;20343;-77
2022/04/24 14:13:27;;;;;;;;;;;27.80;97.20;;;;;;5045977;28;19932;-76
2022/04/24 14:15:54;;;;;;;;;;;27.50;97.40;;;;;;5046129;28;19929;-75
2022/04/24 14:18:20;;;;;;;;;;;27.80;97.20;;;;;;5046324;28;19929;-75
2022/04/24 14:20:47;;;;;;;;;;;27.70;97.70;;;;;;5046055;28;19925;-78
2022/04/24 14:23:14;;;;;;;;;;;27.90;96.50;;;;;;5046058;28;19929;-77
2022/04/24 14:25:41;;;;;;;;;;;28.10;96.40;;;;;;5045927;28;19925;-76
2022/04/24 14:28:09;;;;;;;;;;;28.60;96.60;;;;;;5046954;28;19925;-75
2022/04/24 14:30:36;;;;;;;;;;;28.70;96.00;;;;;;5047190;28;19932;-73
2022/04/24 14:33:02;;;;;;;;;;;28.40;95.90;;;;;;5046654;28;19926;-75
2022/04/24 14:35:30;;;;;;;;;;;28.40;95.30;;;;;;5046563;28;20420;-75
2022/04/24 14:37:57;;;;;;;;;;;28.30;95.30;;;;;;5036630;28;19925;-74